Time;durP1;ratioP1;P1;durP2;ratioP2;P2;SDS_P1;SDS_P2;PMS_P1;PMS_P2;Temp;Humidity;BMP_temperature;BMP_pressure;BME280_temperature;BME280_humidity;BME280_pressure;Samples;Min_cycle;Max_cycle;Signal;HPM_P1;HPM_P2
2023/11/29 00:00:03;;;;;;;12.73;9.02;;;0.10;99.90;;;;;;5053021;28;20228;-64
2023/11/29 00:02:30;;;;;;;13.00;9.18;;;0.20;99.90;;;;;;5053570;28;20206;-63
2023/11/29 00:04:57;;;;;;;12.48;9.63;;;0.20;99.90;;;;;;5052875;28;20335;-63
2023/11/29 00:07:24;;;;;;;12.25;8.90;;;0.20;99.90;;;;;;5052551;28;20584;-63
2023/11/29 00:09:52;;;;;;;14.18;10.18;;;0.20;99.90;;;;;;5052564;28;20675;-63
2023/11/29 00:12:19;;;;;;;11.40;8.20;;;0.20;99.90;;;;;;5052908;28;20202;-63
2023/11/29 00:14:46;;;;;;;13.10;10.27;;;0.30;99.90;;;;;;5052837;28;20221;-63
2023/11/29 00:17:13;;;;;;;12.90;9.32;;;0.30;99.90;;;;;;5052787;28;20253;-64
2023/11/29 00:19:41;;;;;;;12.73;9.73;;;0.20;99.90;;;;;;5052483;28;20202;-64
2023/11/29 00:22:08;;;;;;;14.50;9.82;;;0.20;99.90;;;;;;5052796;28;20292;-64
2023/11/29 00:24:34;;;;;;;14.02;10.75;;;0.20;99.90;;;;;;5052310;28;20232;-64
2023/11/29 00:27:04;;;;;;;14.65;9.02;;;0.30;99.90;;;;;;5052705;28;20204;-63
2023/11/29 00:29:31;;;;;;;13.82;9.10;;;0.30;99.90;;;;;;5057038;28;20251;-64
2023/11/29 00:31:57;;;;;;;13.77;9.98;;;0.30;99.90;;;;;;5056832;28;20274;-63
2023/11/29 00:34:24;;;;;;;13.45;9.60;;;0.30;99.90;;;;;;5056753;28;20225;-63
2023/11/29 00:36:52;;;;;;;13.25;10.00;;;0.30;99.90;;;;;;5056650;28;20197;-63
2023/11/29 00:39:20;;;;;;;14.68;10.80;;;0.20;99.90;;;;;;5056949;28;20229;-62
2023/11/29 00:41:47;;;;;;;12.75;9.52;;;0.20;99.90;;;;;;5056662;28;20750;-64
2023/11/29 00:44:15;;;;;;;12.38;9.70;;;0.20;99.90;;;;;;5056837;28;20209;-64
2023/11/29 00:46:42;;;;;;;15.25;11.30;;;0.20;99.90;;;;;;5056768;28;20212;-64
2023/11/29 00:49:08;;;;;;;14.75;10.77;;;0.20;99.90;;;;;;5056716;28;20201;-62
2023/11/29 00:51:35;;;;;;;15.20;9.60;;;0.10;99.90;;;;;;5057257;28;20208;-64
2023/11/29 00:54:02;;;;;;;13.57;10.82;;;0.10;99.90;;;;;;5056457;28;20204;-63
2023/11/29 00:56:29;;;;;;;15.55;11.52;;;0.00;99.90;;;;;;5056778;28;20206;-63
2023/11/29 00:58:56;;;;;;;15.05;10.65;;;0.00;99.90;;;;;;5057273;28;20236;-63
2023/11/29 01:01:24;;;;;;;16.92;10.85;;;-0.10;99.90;;;;;;5063737;28;20205;-63
2023/11/29 01:03:50;;;;;;;18.13;10.85;;;-0.10;99.90;;;;;;5063259;28;20206;-64
2023/11/29 01:06:17;;;;;;;14.93;10.55;;;-0.10;99.90;;;;;;5056150;28;20309;-64
2023/11/29 01:08:44;;;;;;;13.85;10.18;;;-0.10;99.90;;;;;;5056030;28;20208;-63
2023/11/29 01:11:11;;;;;;;18.08;10.82;;;-0.10;99.90;;;;;;5056544;28;20197;-63
2023/11/29 01:13:37;;;;;;;16.05;10.43;;;-0.10;99.90;;;;;;5055886;28;20201;-63
2023/11/29 01:16:05;;;;;;;12.60;9.25;;;-0.10;99.90;;;;;;5055736;28;20222;-63
2023/11/29 01:18:33;;;;;;;17.88;12.70;;;-0.10;99.90;;;;;;5055808;28;20221;-64
2023/11/29 01:21:00;;;;;;;14.18;11.15;;;-0.10;99.90;;;;;;5055810;28;20202;-63
2023/11/29 01:23:26;;;;;;;16.70;10.77;;;-0.20;99.90;;;;;;5056204;28;20214;-64
2023/11/29 01:25:53;;;;;;;15.02;10.05;;;-0.20;99.90;;;;;;5055604;28;20223;-64
2023/11/29 01:28:20;;;;;;;15.85;11.23;;;-0.20;99.90;;;;;;5055834;28;20198;-63
2023/11/29 01:30:47;;;;;;;16.35;11.10;;;-0.20;99.90;;;;;;5055716;28;20212;-64
2023/11/29 01:33:13;;;;;;;15.40;11.05;;;-0.20;99.90;;;;;;5055662;28;20202;-62
2023/11/29 01:35:42;;;;;;;15.32;11.00;;;-0.20;99.90;;;;;;5055194;28;20241;-62
2023/11/29 01:38:09;;;;;;;14.63;9.88;;;-0.20;99.90;;;;;;5055574;28;20268;-63
2023/11/29 01:40:36;;;;;;;15.05;11.88;;;-0.10;99.90;;;;;;5054848;28;20201;-62
2023/11/29 01:43:03;;;;;;;19.38;10.55;;;-0.10;99.90;;;;;;5055622;28;20293;-63
2023/11/29 01:45:29;;;;;;;16.60;11.20;;;-0.10;99.90;;;;;;5055442;28;20253;-64
2023/11/29 01:47:57;;;;;;;17.58;10.75;;;-0.10;99.90;;;;;;5055564;28;20205;-63
2023/11/29 01:50:29;;;;;;;12.20;9.30;;;-0.10;99.90;;;;;;5055279;28;20223;-63
2023/11/29 01:52:57;;;;;;;16.27;11.93;;;-0.20;99.90;;;;;;5055103;28;20182;-64
2023/11/29 01:55:26;;;;;;;16.55;10.70;;;-0.20;99.90;;;;;;5055335;28;20228;-65
2023/11/29 01:57:53;;;;;;;13.88;9.05;;;-0.20;99.90;;;;;;5055077;28;20243;-64
2023/11/29 02:00:21;;;;;;;18.13;10.77;;;-0.20;99.90;;;;;;5054907;28;20209;-64
2023/11/29 02:02:48;;;;;;;16.63;10.65;;;-0.20;99.90;;;;;;5055394;28;20213;-65
2023/11/29 02:05:15;;;;;;;18.83;11.45;;;-0.20;99.90;;;;;;5055476;28;20594;-63
2023/11/29 02:07:42;;;;;;;16.25;11.68;;;-0.20;99.90;;;;;;5055124;28;20193;-65
2023/11/29 02:10:11;;;;;;;19.13;12.05;;;-0.20;99.90;;;;;;5055110;28;20205;-64
2023/11/29 02:12:37;;;;;;;18.92;11.90;;;-0.20;99.90;;;;;;5055279;28;20223;-63
2023/11/29 02:15:05;;;;;;;16.63;11.55;;;-0.20;99.90;;;;;;5055510;28;20221;-63
2023/11/29 02:17:31;;;;;;;15.50;10.95;;;-0.30;99.90;;;;;;5055047;28;20214;-64
2023/11/29 02:19:58;;;;;;;15.90;12.15;;;-0.20;99.90;;;;;;5054666;28;20202;-62
2023/11/29 02:22:27;;;;;;;19.08;10.90;;;-0.30;99.90;;;;;;5055082;28;20285;-62
2023/11/29 02:24:55;;;;;;;15.38;10.80;;;-0.30;99.90;;;;;;5054970;28;20228;-63
2023/11/29 02:27:23;;;;;;;16.02;10.95;;;-0.30;99.90;;;;;;5055019;28;20206;-63
2023/11/29 02:29:50;;;;;;;15.23;10.38;;;-0.30;99.90;;;;;;5054909;28;20212;-63
2023/11/29 02:32:17;;;;;;;15.15;10.05;;;-0.30;99.90;;;;;;5054729;28;20216;-63
2023/11/29 02:34:43;;;;;;;15.88;10.77;;;-0.30;99.90;;;;;;5054852;28;20236;-65
2023/11/29 02:37:10;;;;;;;14.65;9.98;;;-0.30;99.90;;;;;;5054539;28;20197;-63
2023/11/29 02:39:37;;;;;;;19.90;12.65;;;-0.20;99.90;;;;;;5054146;28;20221;-63
2023/11/29 02:42:06;;;;;;;16.35;10.13;;;-0.30;99.90;;;;;;5054323;28;20750;-64
2023/11/29 02:44:32;;;;;;;14.95;11.32;;;-0.30;99.90;;;;;;5054498;28;20695;-63
2023/11/29 02:46:59;;;;;;;15.63;10.40;;;-0.20;99.90;;;;;;5054608;28;20202;-63
2023/11/29 02:49:26;;;;;;;15.05;10.50;;;-0.20;99.90;;;;;;5054308;28;20583;-63
2023/11/29 02:51:53;;;;;;;14.25;9.45;;;-0.20;99.90;;;;;;5054911;28;20676;-62
2023/11/29 02:54:19;;;;;;;17.60;11.27;;;-0.20;99.90;;;;;;5055247;28;20726;-63
2023/11/29 02:56:46;;;;;;;15.15;10.20;;;-0.20;99.90;;;;;;5055249;28;20229;-62
2023/11/29 02:59:14;;;;;;;14.85;10.57;;;-0.10;99.90;;;;;;5054723;28;20218;-62
2023/11/29 03:01:41;;;;;;;14.73;10.55;;;-0.10;99.90;;;;;;5070733;28;20225;-62
2023/11/29 03:04:08;;;;;;;16.55;10.43;;;-0.10;99.90;;;;;;5056458;28;20212;-63
2023/11/29 03:06:35;;;;;;;13.60;9.20;;;-0.10;99.90;;;;;;5055397;28;20213;-62
2023/11/29 03:09:02;;;;;;;15.40;10.90;;;-0.10;99.90;;;;;;5053956;28;20233;-62
2023/11/29 03:11:28;;;;;;;12.63;8.40;;;-0.10;99.90;;;;;;5053425;28;20210;-62
2023/11/29 03:13:55;;;;;;;12.75;9.50;;;0.00;99.90;;;;;;5053668;28;20205;-62
2023/11/29 03:16:23;;;;;;;13.50;9.60;;;0.00;99.90;;;;;;5053473;28;20221;-62
2023/11/29 03:18:50;;;;;;;12.63;9.65;;;0.00;99.90;;;;;;5053491;28;20721;-63
2023/11/29 03:21:17;;;;;;;13.25;9.50;;;0.00;99.90;;;;;;5053709;28;20297;-63
2023/11/29 03:23:44;;;;;;;13.05;9.00;;;0.00;99.90;;;;;;5053720;28;20197;-64
2023/11/29 03:26:10;;;;;;;13.20;9.77;;;0.00;99.90;;;;;;5053517;28;20218;-64
2023/11/29 03:28:37;;;;;;;12.32;9.18;;;0.00;99.90;;;;;;5053795;28;20201;-63
2023/11/29 03:31:05;;;;;;;12.00;9.18;;;0.00;99.90;;;;;;5053603;28;20202;-63
2023/11/29 03:33:33;;;;;;;12.07;8.63;;;0.00;99.90;;;;;;5053530;28;20212;-63
2023/11/29 03:36:00;;;;;;;9.52;7.82;;;0.00;99.90;;;;;;5085134;22;20229;-63
2023/11/29 03:38:26;;;;;;;12.82;9.73;;;0.10;99.90;;;;;;5061317;28;20232;-64
2023/11/29 03:40:53;;;;;;;12.65;9.13;;;0.10;99.90;;;;;;5063828;28;20265;-64
2023/11/29 03:43:20;;;;;;;10.30;8.13;;;0.20;99.90;;;;;;5061114;28;20208;-64
2023/11/29 03:45:46;;;;;;;12.82;9.35;;;0.20;99.90;;;;;;5061839;28;20304;-63
2023/11/29 03:48:13;;;;;;;11.32;8.40;;;0.20;99.90;;;;;;5062727;28;20208;-63
2023/11/29 03:50:43;;;;;;;10.43;8.02;;;0.20;99.90;;;;;;5061068;28;20209;-63
2023/11/29 03:53:10;;;;;;;11.85;9.52;;;0.20;99.90;;;;;;5057816;28;20205;-63
2023/11/29 03:55:37;;;;;;;12.45;10.00;;;0.20;99.90;;;;;;5056642;28;20598;-63
2023/11/29 03:58:04;;;;;;;13.13;9.48;;;0.20;99.90;;;;;;5069691;28;20257;-63
2023/11/29 04:00:31;;;;;;;13.82;8.77;;;0.20;99.90;;;;;;5070674;28;20204;-63
2023/11/29 04:02:58;;;;;;;12.93;8.57;;;0.30;99.90;;;;;;5057796;28;20197;-63
2023/11/29 04:05:25;;;;;;;10.50;7.90;;;0.30;99.90;;;;;;5057882;28;20222;-64
2023/11/29 04:07:53;;;;;;;10.60;8.73;;;0.30;99.90;;;;;;5057793;28;20206;-64
2023/11/29 04:12:40;;;;;;;9.10;7.05;;;0.30;99.90;;;;;;5116556;27;20676;-62
2023/11/29 04:15:07;;;;;;;10.73;7.30;;;0.20;99.90;;;;;;5116237;28;20227;-63
2023/11/29 04:17:34;;;;;;;10.18;8.45;;;0.20;99.90;;;;;;5114006;28;20253;-63
2023/11/29 04:20:01;;;;;;;14.05;9.05;;;0.20;99.90;;;;;;5115407;28;20199;-63
2023/11/29 04:22:28;;;;;;;8.45;6.47;;;0.20;99.90;;;;;;5113823;28;20202;-63
2023/11/29 04:24:54;;;;;;;9.65;7.75;;;0.20;99.90;;;;;;5114109;28;20223;-63
2023/11/29 04:27:21;;;;;;;13.45;9.10;;;0.30;99.90;;;;;;5112914;28;20206;-63
2023/11/29 04:29:49;;;;;;;12.40;8.85;;;0.30;99.90;;;;;;5112665;28;20204;-63
2023/11/29 04:32:16;;;;;;;9.20;6.80;;;0.30;99.90;;;;;;5113529;28;20226;-62
2023/11/29 04:34:43;;;;;;;11.35;9.02;;;0.40;99.90;;;;;;5113166;28;20235;-63
2023/11/29 04:37:09;;;;;;;16.77;9.40;;;0.40;99.90;;;;;;5112883;28;20244;-63
2023/11/29 04:39:36;;;;;;;13.02;8.52;;;0.40;99.90;;;;;;5114151;28;20210;-63
2023/11/29 04:42:03;;;;;;;15.10;8.70;;;0.40;99.90;;;;;;5114052;28;20219;-64
2023/11/29 04:44:30;;;;;;;12.93;9.30;;;0.40;99.90;;;;;;5113049;28;20202;-62
2023/11/29 04:46:58;;;;;;;13.50;9.10;;;0.40;99.90;;;;;;5113599;28;20199;-61
2023/11/29 04:49:25;;;;;;;12.40;9.23;;;0.40;99.90;;;;;;5116628;28;20207;-63
2023/11/29 04:51:52;;;;;;;18.75;9.43;;;0.50;99.90;;;;;;5115258;28;20242;-64
2023/11/29 04:54:18;;;;;;;14.48;9.63;;;0.50;99.90;;;;;;5112827;28;20234;-63
2023/11/29 04:56:46;;;;;;;15.02;9.18;;;0.40;99.90;;;;;;5112468;28;20220;-63
2023/11/29 04:59:13;;;;;;;14.32;9.50;;;0.40;99.90;;;;;;5112046;28;20208;-63
2023/11/29 05:01:40;;;;;;;19.42;9.98;;;0.40;99.90;;;;;;5106702;22;20217;-62
2023/11/29 05:04:08;;;;;;;14.10;10.70;;;0.40;99.90;;;;;;5049655;28;20201;-62
2023/11/29 05:06:34;;;;;;;14.13;11.93;;;0.40;99.90;;;;;;5049637;28;20232;-62
2023/11/29 05:09:02;;;;;;;12.05;9.13;;;0.40;99.90;;;;;;5049287;28;20205;-62
2023/11/29 05:11:29;;;;;;;15.40;9.85;;;0.40;99.90;;;;;;5048586;28;20774;-61
2023/11/29 05:13:54;;;;;;;15.07;10.27;;;0.40;99.90;;;;;;5048946;28;20206;-62
2023/11/29 05:16:21;;;;;;;15.13;9.70;;;0.40;99.90;;;;;;5049887;28;20285;-62
2023/11/29 05:18:48;;;;;;;12.45;9.50;;;0.40;99.90;;;;;;5049513;28;20237;-62
2023/11/29 05:21:17;;;;;;;17.85;10.30;;;0.40;99.90;;;;;;5049395;28;20222;-61
2023/11/29 05:23:44;;;;;;;13.98;10.20;;;0.50;99.90;;;;;;5037035;28;20210;-61
2023/11/29 05:26:10;;;;;;;11.90;9.55;;;0.50;99.90;;;;;;5035562;28;20621;-60
2023/11/29 05:28:37;;;;;;;21.65;10.93;;;0.50;99.90;;;;;;5036055;28;20208;-61
2023/11/29 05:31:04;;;;;;;13.13;8.82;;;0.50;99.90;;;;;;5035756;28;20231;-62
2023/11/29 05:33:30;;;;;;;13.05;9.38;;;0.50;99.90;;;;;;5035863;28;20205;-61
2023/11/29 05:35:57;;;;;;;14.27;10.30;;;0.50;99.90;;;;;;5035210;28;20198;-62
2023/11/29 05:38:25;;;;;;;14.00;9.82;;;0.50;99.90;;;;;;5035366;28;20966;-62
2023/11/29 05:40:52;;;;;;;12.93;9.07;;;0.50;99.90;;;;;;5035343;28;20294;-62
2023/11/29 05:43:19;;;;;;;12.95;9.90;;;0.50;99.90;;;;;;5035112;28;20199;-61
2023/11/29 05:45:46;;;;;;;19.02;10.73;;;0.50;99.90;;;;;;5034909;28;20690;-61
2023/11/29 05:48:13;;;;;;;16.08;9.23;;;0.60;99.90;;;;;;5035441;28;20207;-61
2023/11/29 05:50:39;;;;;;;14.02;9.15;;;0.60;99.90;;;;;;5035117;28;20203;-61
2023/11/29 05:53:06;;;;;;;16.15;10.35;;;0.70;99.90;;;;;;5035061;28;20238;-61
2023/11/29 05:55:34;;;;;;;14.50;9.25;;;0.70;99.90;;;;;;5034876;28;20278;-61
2023/11/29 05:58:03;;;;;;;17.58;10.52;;;0.70;99.90;;;;;;5034746;28;20630;-61
2023/11/29 06:00:30;;;;;;;21.10;9.20;;;0.70;99.90;;;;;;5034311;28;20203;-62
2023/11/29 06:02:57;;;;;;;13.25;9.20;;;0.70;99.90;;;;;;5034526;28;20317;-61
2023/11/29 06:05:24;;;;;;;16.92;9.75;;;0.80;99.90;;;;;;5035038;28;20673;-62
2023/11/29 06:07:51;;;;;;;14.55;9.93;;;0.80;99.90;;;;;;5034673;28;20233;-61
2023/11/29 06:10:18;;;;;;;16.33;9.68;;;0.80;99.90;;;;;;5034680;28;20208;-62
2023/11/29 06:12:46;;;;;;;13.60;10.15;;;0.80;99.90;;;;;;5034713;28;20226;-61
2023/11/29 06:15:14;;;;;;;18.63;8.50;;;0.80;99.90;;;;;;5035384;28;20202;-61
2023/11/29 06:17:40;;;;;;;12.13;8.77;;;0.90;99.90;;;;;;5034747;28;20621;-61
2023/11/29 06:20:09;;;;;;;16.02;9.52;;;0.80;99.90;;;;;;5034510;28;20543;-61
2023/11/29 06:22:36;;;;;;;13.10;9.27;;;0.90;99.90;;;;;;5034340;28;20249;-62
2023/11/29 06:25:04;;;;;;;13.05;9.50;;;0.90;99.90;;;;;;5034306;28;20210;-62
2023/11/29 06:27:31;;;;;;;10.48;7.45;;;0.80;99.90;;;;;;5034426;28;20230;-62
2023/11/29 06:29:59;;;;;;;15.82;9.63;;;0.80;99.90;;;;;;5034054;28;20294;-62
2023/11/29 06:32:26;;;;;;;15.95;9.18;;;0.80;99.90;;;;;;5033578;28;20697;-60
2023/11/29 06:34:55;;;;;;;12.23;9.45;;;0.80;99.90;;;;;;5033223;28;20202;-62
2023/11/29 06:37:22;;;;;;;15.38;9.40;;;0.80;99.90;;;;;;5033850;28;20257;-61
2023/11/29 06:39:49;;;;;;;14.40;8.93;;;0.80;99.90;;;;;;5034062;28;20206;-61
2023/11/29 06:42:17;;;;;;;12.85;9.23;;;0.80;99.90;;;;;;5033908;28;20219;-62
2023/11/29 06:44:43;;;;;;;14.90;8.60;;;0.80;99.90;;;;;;5034149;28;20206;-61
2023/11/29 06:47:12;;;;;;;17.65;9.10;;;0.80;99.90;;;;;;5034056;28;20198;-61
2023/11/29 06:49:39;;;;;;;13.57;8.82;;;0.80;99.90;;;;;;5034128;28;20242;-62
2023/11/29 06:52:08;;;;;;;12.48;9.38;;;0.90;99.90;;;;;;5033528;28;20640;-62
2023/11/29 06:54:36;;;;;;;10.30;8.65;;;0.90;99.90;;;;;;5033731;28;20213;-61
2023/11/29 06:57:03;;;;;;;13.30;9.35;;;0.90;99.90;;;;;;5036341;28;20207;-62
2023/11/29 06:59:30;;;;;;;13.27;10.13;;;0.90;99.90;;;;;;5036109;28;20211;-62
2023/11/29 07:01:57;;;;;;;18.15;9.90;;;1.00;99.90;;;;;;5033194;28;20778;-61
2023/11/29 07:04:27;;;;;;;12.75;8.38;;;1.00;99.90;;;;;;5033740;28;20202;-62
2023/11/29 07:06:55;;;;;;;17.83;8.15;;;1.00;99.90;;;;;;5033456;28;20248;-61
2023/11/29 07:09:22;;;;;;;14.45;10.38;;;1.00;99.90;;;;;;5033185;28;20202;-61
2023/11/29 07:11:48;;;;;;;15.15;9.27;;;1.00;99.90;;;;;;5033240;28;20218;-61
2023/11/29 07:14:15;;;;;;;15.05;9.60;;;0.90;99.90;;;;;;5032946;28;20588;-61
2023/11/29 07:16:42;;;;;;;15.07;9.52;;;0.90;99.90;;;;;;5033197;28;20667;-61
2023/11/29 07:19:09;;;;;;;14.00;9.50;;;1.00;99.90;;;;;;5033268;28;20206;-61
2023/11/29 07:21:37;;;;;;;10.73;7.57;;;1.00;99.90;;;;;;5033354;28;20231;-62
2023/11/29 07:24:05;;;;;;;14.75;9.65;;;0.90;99.90;;;;;;5033056;28;20206;-62
2023/11/29 07:26:32;;;;;;;13.07;9.43;;;0.90;99.90;;;;;;5033489;28;20198;-62
2023/11/29 07:28:59;;;;;;;11.98;8.93;;;1.00;99.90;;;;;;5033296;28;20202;-61
2023/11/29 07:31:26;;;;;;;11.02;8.23;;;1.00;99.90;;;;;;5032656;28;20317;-61
2023/11/29 07:33:53;;;;;;;10.60;7.95;;;1.00;99.90;;;;;;5032853;28;20281;-61
2023/11/29 07:36:19;;;;;;;11.30;9.15;;;1.10;99.90;;;;;;5032789;28;20324;-62
2023/11/29 07:38:48;;;;;;;12.20;9.32;;;1.10;99.90;;;;;;5033038;28;20198;-61
2023/11/29 07:41:15;;;;;;;10.95;8.82;;;1.10;99.90;;;;;;5033062;28;20272;-60
2023/11/29 07:43:42;;;;;;;13.13;8.90;;;1.20;99.90;;;;;;5033295;28;20212;-61
2023/11/29 07:46:09;;;;;;;10.88;8.75;;;1.20;99.90;;;;;;5032359;28;20213;-61
2023/11/29 07:48:36;;;;;;;11.57;8.25;;;1.20;99.90;;;;;;5032707;28;20210;-61
2023/11/29 07:51:03;;;;;;;9.63;7.43;;;1.20;99.90;;;;;;5032667;28;20198;-61
2023/11/29 07:53:30;;;;;;;9.07;7.63;;;1.20;99.90;;;;;;5032877;28;20325;-61
2023/11/29 07:55:58;;;;;;;11.25;8.80;;;1.20;99.90;;;;;;5032405;28;20690;-62
2023/11/29 07:58:25;;;;;;;10.55;8.07;;;1.20;99.90;;;;;;5033368;28;20206;-61
2023/11/29 08:00:51;;;;;;;12.23;8.18;;;1.20;99.90;;;;;;5032230;28;20290;-62
2023/11/29 08:03:19;;;;;;;12.07;8.15;;;1.20;99.90;;;;;;5032033;28;20232;-61
2023/11/29 08:05:46;;;;;;;10.32;7.07;;;1.30;99.90;;;;;;5032714;28;20209;-62
2023/11/29 08:08:13;;;;;;;10.95;8.15;;;1.30;99.90;;;;;;5032934;28;20233;-61
2023/11/29 08:10:40;;;;;;;14.00;8.20;;;1.30;99.90;;;;;;5032488;28;20198;-60
2023/11/29 08:13:08;;;;;;;10.35;8.27;;;1.30;99.90;;;;;;5032538;28;20226;-61
2023/11/29 08:15:36;;;;;;;10.30;8.05;;;1.30;99.90;;;;;;5032456;28;20206;-62
2023/11/29 08:18:04;;;;;;;15.20;8.73;;;1.30;99.90;;;;;;5032364;28;20289;-62
2023/11/29 08:20:31;;;;;;;10.00;8.30;;;1.40;99.90;;;;;;5032664;28;20203;-61
2023/11/29 08:22:57;;;;;;;8.93;7.65;;;1.40;99.90;;;;;;5032698;28;20222;-62
2023/11/29 08:25:25;;;;;;;11.75;8.25;;;1.40;99.90;;;;;;5032253;28;20289;-61
2023/11/29 08:27:52;;;;;;;10.55;7.93;;;1.40;99.90;;;;;;5032396;28;20279;-61
2023/11/29 08:30:20;;;;;;;10.25;7.75;;;1.40;99.90;;;;;;5032442;28;20232;-61
2023/11/29 08:32:47;;;;;;;11.80;7.97;;;1.50;99.90;;;;;;5032033;28;20645;-62
2023/11/29 08:35:14;;;;;;;10.90;8.00;;;1.50;99.90;;;;;;5032546;28;20202;-62
2023/11/29 08:37:41;;;;;;;13.88;9.98;;;1.50;99.90;;;;;;5032030;28;20209;-62
2023/11/29 08:40:08;;;;;;;10.07;8.07;;;1.50;99.90;;;;;;5032478;28;20587;-61
2023/11/29 08:42:35;;;;;;;11.95;8.90;;;1.60;99.90;;;;;;5031915;28;20218;-61
2023/11/29 08:45:03;;;;;;;10.57;8.38;;;1.60;99.90;;;;;;5031887;28;20249;-61
2023/11/29 08:47:31;;;;;;;12.73;8.55;;;1.70;99.90;;;;;;5033458;28;20286;-62
2023/11/29 08:49:58;;;;;;;10.90;8.45;;;1.80;99.90;;;;;;5032359;28;20199;-61
2023/11/29 08:52:25;;;;;;;14.82;9.15;;;1.80;99.90;;;;;;5032967;28;20649;-62
2023/11/29 08:54:53;;;;;;;11.00;8.38;;;1.80;99.90;;;;;;5034099;28;20202;-61
2023/11/29 08:57:23;;;;;;;10.90;8.80;;;1.90;99.90;;;;;;5032718;28;20210;-61
2023/11/29 08:59:51;;;;;;;10.18;8.70;;;1.90;99.90;;;;;;5036247;28;20202;-62
2023/11/29 09:02:18;;;;;;;12.55;8.60;;;1.90;99.90;;;;;;5036192;28;20226;-62
2023/11/29 09:04:46;;;;;;;8.95;7.30;;;1.90;99.90;;;;;;5036227;28;20237;-62
2023/11/29 09:07:13;;;;;;;11.65;8.55;;;1.90;99.90;;;;;;5035899;28;20241;-61
2023/11/29 09:09:43;;;;;;;10.00;8.27;;;1.90;99.90;;;;;;5036131;28;20230;-62
2023/11/29 09:12:10;;;;;;;13.55;8.20;;;1.90;99.90;;;;;;5035659;28;20249;-62
2023/11/29 09:14:37;;;;;;;10.60;7.85;;;1.90;99.90;;;;;;5035377;28;20677;-62
2023/11/29 09:17:04;;;;;;;9.75;8.18;;;1.90;99.90;;;;;;5035740;28;20237;-62
2023/11/29 09:19:32;;;;;;;8.25;7.32;;;1.90;99.90;;;;;;5035514;28;20202;-61
2023/11/29 09:22:00;;;;;;;11.10;8.43;;;1.90;99.90;;;;;;5035647;28;20264;-62
2023/11/29 09:24:28;;;;;;;10.77;8.30;;;1.90;99.90;;;;;;5035574;28;20252;-61
2023/11/29 09:26:55;;;;;;;9.63;7.78;;;1.90;99.90;;;;;;5035929;28;20361;-61
2023/11/29 09:29:22;;;;;;;11.60;9.48;;;1.90;99.90;;;;;;5035746;28;20202;-63
2023/11/29 09:31:49;;;;;;;8.00;7.28;;;1.90;99.90;;;;;;5035268;28;20219;-61
2023/11/29 09:34:16;;;;;;;8.65;7.75;;;2.00;99.90;;;;;;5035618;28;20198;-60
2023/11/29 09:36:43;;;;;;;8.38;7.50;;;1.90;99.90;;;;;;5035256;28;20236;-60
2023/11/29 09:39:14;;;;;;;15.65;7.22;;;1.90;99.90;;;;;;5035416;28;20664;-61
2023/11/29 09:41:41;;;;;;;10.55;7.70;;;2.00;99.90;;;;;;5035584;28;20304;-61
2023/11/29 09:44:09;;;;;;;15.48;8.77;;;2.00;99.90;;;;;;5035862;28;20672;-61
2023/11/29 09:46:37;;;;;;;14.88;11.13;;;1.90;99.90;;;;;;5035912;28;20282;-61
2023/11/29 09:49:05;;;;;;;13.27;9.10;;;1.90;99.90;;;;;;5035545;28;20674;-61
2023/11/29 09:51:32;;;;;;;14.50;10.38;;;1.90;99.90;;;;;;5036168;28;20787;-61
2023/11/29 09:53:59;;;;;;;14.52;10.45;;;1.90;99.90;;;;;;5034994;28;20272;-62
2023/11/29 09:56:28;;;;;;;12.38;11.10;;;1.80;99.90;;;;;;5035295;28;20207;-62
2023/11/29 09:58:55;;;;;;;12.70;10.25;;;1.90;99.90;;;;;;5035191;28;20618;-62
2023/11/29 10:01:23;;;;;;;11.93;10.25;;;1.90;99.90;;;;;;5035262;28;20234;-61
2023/11/29 10:04:03;;;;;;;13.43;9.50;;;1.90;99.90;;;;;;5036042;28;20190;-63
2023/11/29 10:06:31;;;;;;;10.68;8.63;;;1.80;99.90;;;;;;5035801;28;20289;-62
2023/11/29 10:08:58;;;;;;;27.25;9.25;;;1.90;99.90;;;;;;5035090;28;20206;-62
2023/11/29 10:11:29;;;;;;;12.50;9.65;;;1.90;99.90;;;;;;5035276;28;20226;-63
2023/11/29 10:13:57;;;;;;;14.55;8.65;;;2.00;99.90;;;;;;5035535;28;20230;-62
2023/11/29 10:16:24;;;;;;;14.82;8.93;;;2.00;99.90;;;;;;5035412;28;20238;-62
2023/11/29 10:18:51;;;;;;;9.70;8.27;;;2.00;99.90;;;;;;5035591;28;20234;-62
2023/11/29 10:21:19;;;;;;;15.35;9.82;;;2.00;99.90;;;;;;5036123;28;20222;-62
2023/11/29 10:23:47;;;;;;;13.10;9.25;;;2.00;99.90;;;;;;5036771;28;20203;-60
2023/11/29 10:26:14;;;;;;;12.00;8.70;;;2.00;99.90;;;;;;5038132;28;20574;-61
2023/11/29 10:28:43;;;;;;;13.38;9.57;;;2.00;99.90;;;;;;5035866;28;20371;-61
2023/11/29 10:31:11;;;;;;;11.05;9.30;;;2.00;99.90;;;;;;5035100;28;20309;-61
2023/11/29 10:33:40;;;;;;;15.82;9.40;;;2.00;99.90;;;;;;5034520;28;20550;-62
2023/11/29 10:36:08;;;;;;;12.55;8.63;;;1.90;99.90;;;;;;5034559;28;20209;-62
2023/11/29 10:38:41;;;;;;;10.75;8.57;;;1.90;99.90;;;;;;5034506;28;20256;-60
2023/11/29 10:41:10;;;;;;;10.10;8.00;;;1.90;99.90;;;;;;5034677;28;20226;-61
2023/11/29 10:43:38;;;;;;;12.63;11.05;;;1.90;99.90;;;;;;5034704;28;20201;-62
2023/11/29 10:46:13;;;;;;;13.95;9.35;;;1.90;99.90;;;;;;5034867;28;20301;-60
2023/11/29 10:48:47;;;;;;;9.98;7.93;;;1.80;99.90;;;;;;5035381;28;20191;-61
2023/11/29 10:51:14;;;;;;;11.45;8.43;;;1.80;99.90;;;;;;5035286;28;20225;-62
2023/11/29 10:53:42;;;;;;;11.98;8.98;;;1.70;99.90;;;;;;5036054;28;20660;-60
2023/11/29 10:56:10;;;;;;;10.15;7.75;;;1.70;99.90;;;;;;5035112;28;20202;-61
2023/11/29 10:58:47;;;;;;;11.38;8.10;;;1.70;99.90;;;;;;5034674;28;20683;-61
2023/11/29 11:01:16;;;;;;;12.43;8.88;;;1.70;99.90;;;;;;5039873;28;20285;-61
2023/11/29 11:03:44;;;;;;;10.27;8.35;;;1.70;99.90;;;;;;5038588;28;20289;-62
2023/11/29 11:06:37;;;;;;;11.52;8.32;;;1.70;99.90;;;;;;5034874;28;20293;-60
2023/11/29 11:09:06;;;;;;;10.23;8.68;;;1.70;99.90;;;;;;5034525;28;20206;-60
2023/11/29 11:11:46;;;;;;;11.20;8.25;;;1.70;99.90;;;;;;5034612;28;20779;-63
2023/11/29 11:14:20;;;;;;;13.13;8.68;;;1.60;99.90;;;;;;5035849;28;20226;-62
2023/11/29 11:17:00;;;;;;;11.35;7.70;;;1.60;99.90;;;;;;5035303;28;20198;-61
2023/11/29 11:19:31;;;;;;;10.88;8.25;;;1.60;99.90;;;;;;5036332;28;20197;-62
2023/11/29 11:21:58;;;;;;;11.10;7.88;;;1.50;99.90;;;;;;5034846;28;20237;-61
2023/11/29 11:24:57;;;;;;;12.75;9.18;;;1.50;99.90;;;;;;5034958;28;20207;-62
2023/11/29 11:27:26;;;;;;;12.88;7.88;;;1.50;99.90;;;;;;5034844;28;20231;-62
2023/11/29 11:29:53;;;;;;;12.98;9.15;;;1.50;99.90;;;;;;5035159;28;20233;-63
2023/11/29 11:32:47;;;;;;;11.63;8.27;;;1.50;99.90;;;;;;5035983;28;20642;-62
2023/11/29 11:35:41;;;;;;;9.60;7.60;;;1.50;99.90;;;;;;5020750;28;20202;-62
2023/11/29 11:38:10;;;;;;;9.25;7.60;;;1.40;99.90;;;;;;5034956;28;20187;-62
2023/11/29 11:40:39;;;;;;;10.02;7.30;;;1.50;99.90;;;;;;5035725;28;20206;-61
2023/11/29 11:43:06;;;;;;;9.10;7.50;;;1.50;99.90;;;;;;5034681;28;20229;-61
2023/11/29 11:45:36;;;;;;;10.82;7.93;;;1.40;99.90;;;;;;5034376;28;20296;-61
2023/11/29 11:48:05;;;;;;;12.55;8.45;;;1.40;99.90;;;;;;5034219;28;20202;-61
2023/11/29 11:50:33;;;;;;;12.02;8.02;;;1.50;99.90;;;;;;5035887;28;20206;-62
2023/11/29 11:53:03;;;;;;;10.95;9.20;;;1.50;99.90;;;;;;5033888;28;20233;-61
2023/11/29 11:55:30;;;;;;;14.65;10.65;;;1.50;99.90;;;;;;5033665;28;20208;-61
2023/11/29 11:57:59;;;;;;;13.68;9.68;;;1.50;99.90;;;;;;5034215;28;20232;-62
2023/11/29 12:00:27;;;;;;;12.18;9.23;;;1.50;99.90;;;;;;5033460;28;20206;-62
2023/11/29 12:02:55;;;;;;;10.77;9.23;;;1.60;99.90;;;;;;5032601;28;20234;-61
2023/11/29 12:05:23;;;;;;;11.80;9.55;;;1.60;99.90;;;;;;5032811;28;20571;-61
2023/11/29 12:07:50;;;;;;;9.80;8.80;;;1.60;99.90;;;;;;5033337;28;20209;-61
2023/11/29 12:10:18;;;;;;;14.15;9.95;;;1.60;99.90;;;;;;5033200;28;20208;-61
2023/11/29 12:12:46;;;;;;;11.93;7.97;;;1.60;99.90;;;;;;5033193;28;20313;-62
2023/11/29 12:15:15;;;;;;;8.75;5.50;;;1.70;99.90;;;;;;5032937;28;20202;-61
2023/11/29 12:17:42;;;;;;;15.10;8.73;;;1.70;99.90;;;;;;5032966;28;20255;-61
2023/11/29 12:20:11;;;;;;;8.13;7.10;;;1.70;99.90;;;;;;5032943;28;20208;-61
2023/11/29 12:22:42;;;;;;;9.50;7.28;;;1.70;99.90;;;;;;5033282;28;20292;-62
2023/11/29 12:25:13;;;;;;;9.02;7.10;;;1.70;99.90;;;;;;5032913;28;20187;-63
2023/11/29 12:27:43;;;;;;;8.13;6.90;;;1.60;99.90;;;;;;5033002;28;20202;-62
2023/11/29 12:30:11;;;;;;;9.23;7.03;;;1.60;99.90;;;;;;5032633;28;20297;-64
2023/11/29 12:32:39;;;;;;;8.65;7.15;;;1.60;99.90;;;;;;5033501;28;20229;-62
2023/11/29 12:35:08;;;;;;;8.38;6.90;;;1.60;99.90;;;;;;5036843;28;20223;-60
2023/11/29 12:37:35;;;;;;;9.18;7.03;;;1.60;99.90;;;;;;5037359;28;20210;-61
2023/11/29 12:40:04;;;;;;;8.80;6.68;;;1.60;99.90;;;;;;5036177;28;20205;-62
2023/11/29 12:42:32;;;;;;;7.82;6.38;;;1.60;99.90;;;;;;5036058;28;20234;-61
2023/11/29 12:44:59;;;;;;;11.65;7.72;;;1.60;99.90;;;;;;5036378;28;20285;-63
2023/11/29 12:47:28;;;;;;;10.35;7.13;;;1.60;99.90;;;;;;5036535;28;20201;-63